createdAt,value
2023-04-15T00:00:42.185Z,4.88
2023-04-15T00:01:45.073Z,4.65
2023-04-15T00:02:48.464Z,4.55
2023-04-15T00:03:52.722Z,5.05
2023-04-15T00:04:55.602Z,4.75
2023-04-15T00:05:58.018Z,4.75
2023-04-15T00:07:00.829Z,4.82
2023-04-15T00:08:02.857Z,5.32
2023-04-15T00:09:05.951Z,5.40
2023-04-15T00:10:09.553Z,4.85
2023-04-15T00:11:12.538Z,5.65
2023-04-15T00:12:14.533Z,5.60
2023-04-15T00:13:17.442Z,5.90
2023-04-15T00:14:19.352Z,5.55
2023-04-15T00:15:22.387Z,6.05
2023-04-15T00:16:24.213Z,6.07
2023-04-15T00:17:27.004Z,6.13
2023-04-15T00:18:29.596Z,6.25
2023-04-15T00:19:33.300Z,5.95
2023-04-15T00:20:35.409Z,6.05
2023-04-15T00:21:38.245Z,6.07
2023-04-15T00:22:40.054Z,5.85
2023-04-15T00:23:42.882Z,5.85
2023-04-15T00:24:45.498Z,5.60
2023-04-15T00:25:49.711Z,5.90
2023-04-15T00:26:51.582Z,8.13
2023-04-15T00:27:54.386Z,7.88
2023-04-15T00:28:56.219Z,6.28
2023-04-15T00:29:59.048Z,6.68
2023-04-15T00:31:00.942Z,6.20
2023-04-15T00:32:03.805Z,6.63
2023-04-15T00:33:05.652Z,6.55
2023-04-15T00:34:08.578Z,5.63
2023-04-15T00:35:11.434Z,5.20
2023-04-15T00:36:13.615Z,5.57
2023-04-15T00:37:16.549Z,6.70
2023-04-15T00:38:18.580Z,5.43
2023-04-15T00:39:21.674Z,5.10
2023-04-15T00:40:24.883Z,4.53
2023-04-15T00:41:29.025Z,4.60
2023-04-15T00:42:31.286Z,4.75
2023-04-15T00:43:34.137Z,5.15
2023-04-15T00:44:35.960Z,4.72
2023-04-15T00:45:39.033Z,5.13
2023-04-15T00:46:41.678Z,4.95
2023-04-15T00:47:45.138Z,5.38
2023-04-15T00:48:47.288Z,4.88
2023-04-15T00:49:50.187Z,5.05
2023-04-15T00:50:53.716Z,5.03
2023-04-15T00:51:57.074Z,5.85
2023-04-15T00:52:59.263Z,5.35
2023-04-15T00:54:02.049Z,5.18
2023-04-15T00:55:04.783Z,5.13
2023-04-15T00:56:08.988Z,5.57
2023-04-15T00:57:12.278Z,5.28
2023-04-15T00:58:15.543Z,4.85
2023-04-15T00:59:17.887Z,5.20
2023-04-15T01:00:21.717Z,5.13
2023-04-15T01:01:25.492Z,5.05
2023-04-15T01:02:28.951Z,5.80
2023-04-15T01:03:31.297Z,6.57
2023-04-15T01:04:34.298Z,7.25
2023-04-15T01:05:37.242Z,7.53
2023-04-15T01:06:40.060Z,5.70
2023-04-15T01:07:41.923Z,5.30
2023-04-15T01:08:45.382Z,5.05
2023-04-15T01:09:47.983Z,4.88
2023-04-15T01:10:50.760Z,5.57
2023-04-15T01:11:53.800Z,4.97
2023-04-15T01:12:57.970Z,5.68
2023-04-15T01:14:00.972Z,4.90
2023-04-15T01:15:05.799Z,4.82
2023-04-15T01:16:08.963Z,5.10
2023-04-15T01:17:12.550Z,5.03
2023-04-15T01:18:15.722Z,4.80
2023-04-15T01:19:18.764Z,5.05
2023-04-15T01:20:22.126Z,4.75
2023-04-15T01:21:25.096Z,5.05
2023-04-15T01:22:28.047Z,4.70
2023-04-15T01:23:30.926Z,4.90
2023-04-15T01:24:33.259Z,5.18
2023-04-15T01:25:38.270Z,4.78
2023-04-15T01:26:42.336Z,5.00
2023-04-15T01:27:45.545Z,4.35
2023-04-15T01:28:48.941Z,4.70
2023-04-15T01:29:50.727Z,4.95
2023-04-15T01:31:07.479Z,4.82
2023-04-15T01:32:12.153Z,4.93
2023-04-15T01:33:15.237Z,5.30
2023-04-15T01:34:17.500Z,5.18
2023-04-15T01:35:21.197Z,5.40
2023-04-15T01:36:22.998Z,5.28
2023-04-15T01:37:29.979Z,4.88
2023-04-15T01:38:32.444Z,5.07
2023-04-15T01:39:35.408Z,5.65
2023-04-15T01:40:38.703Z,5.45
2023-04-15T01:41:42.337Z,5.10
2023-04-15T01:42:44.193Z,6.55
2023-04-15T01:43:47.551Z,5.40
2023-04-15T01:44:49.353Z,5.97
2023-04-15T01:45:52.182Z,5.35
2023-04-15T01:46:54.468Z,5.20
2023-04-15T01:47:57.348Z,4.63
2023-04-15T01:48:59.527Z,5.07
2023-04-15T01:50:02.740Z,5.43
2023-04-15T01:51:04.695Z,5.30
2023-04-15T01:52:08.006Z,5.13
2023-04-15T01:53:09.932Z,4.90
2023-04-15T01:54:12.772Z,6.35
2023-04-15T01:55:14.710Z,6.20
2023-04-15T01:56:19.504Z,6.80
2023-04-15T01:57:21.391Z,5.82
2023-04-15T01:58:24.255Z,7.15
2023-04-15T01:59:27.772Z,7.03
2023-04-15T02:00:32.527Z,6.38
2023-04-15T02:01:34.759Z,5.80
2023-04-15T02:02:38.083Z,5.72
2023-04-15T02:03:40.250Z,5.97
2023-04-15T02:04:43.566Z,5.70
2023-04-15T02:05:45.953Z,5.93
2023-04-15T02:06:48.805Z,6.38
2023-04-15T02:07:50.666Z,5.97
2023-04-15T02:08:53.786Z,5.82
2023-04-15T02:09:55.627Z,6.32
2023-04-15T02:10:58.535Z,6.45
2023-04-15T02:12:01.883Z,6.35
2023-04-15T02:13:05.010Z,6.20
2023-04-15T02:14:06.873Z,6.70
2023-04-15T02:15:11.621Z,6.55
2023-04-15T02:16:17.647Z,6.60
2023-04-15T02:17:20.742Z,6.70
2023-04-15T02:18:22.712Z,6.30
2023-04-15T02:19:26.026Z,6.68
2023-04-15T02:20:28.008Z,6.38
2023-04-15T02:21:35.360Z,6.15
2023-04-15T02:22:37.294Z,5.65
2023-04-15T02:23:40.060Z,5.53
2023-04-15T02:24:42.343Z,5.63
2023-04-15T02:25:53.872Z,6.18
2023-04-15T02:26:56.465Z,6.00
2023-04-15T02:28:00.642Z,7.05
2023-04-15T02:29:02.994Z,10.18
2023-04-15T02:30:07.222Z,7.80
2023-04-15T02:31:11.049Z,8.13
2023-04-15T02:32:13.375Z,6.15
2023-04-15T02:33:16.495Z,6.07
2023-04-15T02:34:18.596Z,6.25
2023-04-15T02:35:21.475Z,7.28
2023-04-15T02:36:24.390Z,6.72
2023-04-15T02:37:28.651Z,6.35
2023-04-15T02:38:32.010Z,6.00
2023-04-15T02:39:34.399Z,6.43
2023-04-15T02:40:37.309Z,5.22
2023-04-15T02:41:39.169Z,6.07
2023-04-15T02:42:42.665Z,6.18
2023-04-15T02:43:48.628Z,8.20
2023-04-15T02:44:51.997Z,7.90
2023-04-15T02:45:53.906Z,9.52
2023-04-15T02:46:58.696Z,9.18
2023-04-15T02:48:03.920Z,8.80
2023-04-15T02:49:06.678Z,7.57
2023-04-15T02:50:12.492Z,7.20
2023-04-15T02:51:18.337Z,6.90
2023-04-15T02:52:20.669Z,7.30
2023-04-15T02:53:23.882Z,6.32
2023-04-15T02:54:28.704Z,7.50
2023-04-15T02:55:31.493Z,7.22
2023-04-15T02:56:33.433Z,8.38
2023-04-15T02:57:37.316Z,8.30
2023-04-15T02:58:41.940Z,9.55
2023-04-15T02:59:46.245Z,12.68
2023-04-15T03:00:50.912Z,6.95
2023-04-15T03:01:53.801Z,8.27
2023-04-15T03:02:59.235Z,10.27
2023-04-15T03:04:02.345Z,21.15
2023-04-15T03:05:05.896Z,24.33
2023-04-15T03:06:09.595Z,21.27
2023-04-15T03:07:12.066Z,13.68
2023-04-15T03:08:15.826Z,15.15
2023-04-15T03:09:17.980Z,16.52
2023-04-15T03:10:21.543Z,15.00
2023-04-15T03:11:23.330Z,19.80
2023-04-15T03:12:26.822Z,18.27
2023-04-15T03:13:31.389Z,14.88
2023-04-15T03:14:36.673Z,15.90
2023-04-15T03:15:40.997Z,13.38
2023-04-15T03:16:42.814Z,10.23
2023-04-15T03:17:45.623Z,16.30
2023-04-15T03:18:47.830Z,8.60
2023-04-15T03:19:51.410Z,9.55
2023-04-15T03:20:53.246Z,9.13
2023-04-15T03:21:56.309Z,9.30
2023-04-15T03:22:58.327Z,8.27
2023-04-15T03:24:01.752Z,7.07
2023-04-15T03:25:04.903Z,9.30
2023-04-15T03:26:09.244Z,8.48
2023-04-15T03:27:11.773Z,6.72
2023-04-15T03:28:14.628Z,7.22
2023-04-15T03:29:16.566Z,7.22
2023-04-15T03:30:19.730Z,6.07
2023-04-15T03:31:23.308Z,7.82
2023-04-15T03:32:27.144Z,8.57
2023-04-15T03:33:29.988Z,6.43
2023-04-15T03:34:32.468Z,6.35
2023-04-15T03:35:35.470Z,7.82
2023-04-15T03:36:38.311Z,6.70
2023-04-15T03:37:40.157Z,6.50
2023-04-15T03:38:42.941Z,8.40
2023-04-15T03:39:44.778Z,7.13
2023-04-15T03:40:48.233Z,5.90
2023-04-15T03:41:50.009Z,8.05
2023-04-15T03:42:52.801Z,7.43
2023-04-15T03:43:54.737Z,6.03
2023-04-15T03:44:57.577Z,8.30
2023-04-15T03:46:01.756Z,7.75
2023-04-15T03:47:06.121Z,6.78
2023-04-15T03:48:17.060Z,6.63
2023-04-15T03:49:22.973Z,5.88
2023-04-15T03:50:26.152Z,7.63
2023-04-15T03:51:28.331Z,7.03
2023-04-15T03:52:31.376Z,7.45
2023-04-15T03:53:33.262Z,6.32
2023-04-15T03:54:36.190Z,10.98
2023-04-15T03:55:38.066Z,9.73
2023-04-15T03:56:40.841Z,6.22
2023-04-15T03:57:42.612Z,8.85
2023-04-15T03:58:45.374Z,6.38
2023-04-15T03:59:47.527Z,6.30
2023-04-15T04:00:50.488Z,5.70
2023-04-15T04:01:52.355Z,6.55
2023-04-15T04:02:56.995Z,5.93
2023-04-15T04:03:58.949Z,7.18
2023-04-15T04:05:01.778Z,6.82
2023-04-15T04:06:04.341Z,7.80
2023-04-15T04:07:07.148Z,7.82
2023-04-15T04:08:08.920Z,7.85
2023-04-15T04:09:12.193Z,7.60
2023-04-15T04:10:13.988Z,7.90
2023-04-15T04:11:17.218Z,7.15
2023-04-15T04:12:19.059Z,6.63
2023-04-15T04:13:21.823Z,7.38
2023-04-15T04:14:29.276Z,9.93
2023-04-15T04:15:32.230Z,8.10
2023-04-15T04:16:35.205Z,7.45
2023-04-15T04:17:37.265Z,7.90
2023-04-15T04:18:41.478Z,8.32
2023-04-15T04:19:43.310Z,8.35
2023-04-15T04:20:46.117Z,8.88
2023-04-15T04:21:48.066Z,10.73
2023-04-15T04:22:51.073Z,10.10
2023-04-15T04:23:52.839Z,8.63
2023-04-15T04:24:55.709Z,10.80
2023-04-15T04:25:57.678Z,10.70
2023-04-15T04:27:00.906Z,12.90
2023-04-15T04:28:03.175Z,10.85
2023-04-15T04:29:06.428Z,16.65
2023-04-15T04:30:09.087Z,21.17
2023-04-15T04:31:12.147Z,25.92
2023-04-15T04:32:14.427Z,17.48
2023-04-15T04:33:17.340Z,18.95
2023-04-15T04:34:21.081Z,19.10
2023-04-15T04:35:23.857Z,19.60
2023-04-15T04:36:26.572Z,19.10
2023-04-15T04:37:30.080Z,19.38
2023-04-15T04:38:31.855Z,18.52
2023-04-15T04:39:34.596Z,19.55
2023-04-15T04:40:36.777Z,17.80
2023-04-15T04:41:39.531Z,16.23
2023-04-15T04:42:41.527Z,17.00
2023-04-15T04:43:44.771Z,19.10
2023-04-15T04:44:47.162Z,17.02
2023-04-15T04:45:49.935Z,17.88
2023-04-15T04:46:51.912Z,20.08
2023-04-15T04:47:54.790Z,20.52
2023-04-15T04:48:56.596Z,17.33
2023-04-15T04:50:00.782Z,20.10
2023-04-15T04:51:03.610Z,19.38
2023-04-15T04:52:05.745Z,18.98
2023-04-15T04:53:09.059Z,16.23
2023-04-15T04:54:10.855Z,18.67
2023-04-15T04:55:13.620Z,19.80
2023-04-15T04:56:15.580Z,19.60
2023-04-15T04:57:18.339Z,21.10
2023-04-15T04:58:20.194Z,18.75
2023-04-15T04:59:23.130Z,15.77
2023-04-15T05:00:25.312Z,17.58
2023-04-15T05:01:28.505Z,19.85
2023-04-15T05:02:30.912Z,20.80
2023-04-15T05:03:34.038Z,21.20
2023-04-15T05:04:36.945Z,23.92
2023-04-15T05:05:41.569Z,23.60
2023-04-15T05:06:43.375Z,22.25
2023-04-15T05:07:46.181Z,22.73
2023-04-15T05:08:48.357Z,23.02
2023-04-15T05:09:51.126Z,22.27
2023-04-15T05:10:53.258Z,24.08
2023-04-15T05:11:56.668Z,23.75
2023-04-15T05:12:59.451Z,24.08
2023-04-15T05:14:02.605Z,23.83
2023-04-15T05:15:07.044Z,23.60
2023-04-15T05:16:09.450Z,24.88
2023-04-15T05:17:12.492Z,24.60
2023-04-15T05:18:14.607Z,27.58
2023-04-15T05:19:17.377Z,24.98
2023-04-15T05:20:19.147Z,24.88
2023-04-15T05:21:23.483Z,23.42
2023-04-15T05:22:25.337Z,19.00
2023-04-15T05:23:28.562Z,20.20
2023-04-15T05:24:30.566Z,15.65
2023-04-15T05:25:33.314Z,14.88
2023-04-15T05:26:35.214Z,15.27
2023-04-15T05:27:38.224Z,15.52
2023-04-15T05:28:41.299Z,17.08
2023-04-15T05:29:44.119Z,17.50
2023-04-15T05:30:46.400Z,18.80
2023-04-15T05:31:49.325Z,18.65
2023-04-15T05:32:51.240Z,16.67
2023-04-15T05:33:54.134Z,15.15
2023-04-15T05:34:56.936Z,13.52
2023-04-15T05:35:58.776Z,12.73
2023-04-15T05:37:02.931Z,12.13
2023-04-15T05:38:04.735Z,11.52
2023-04-15T05:39:07.517Z,10.35
2023-04-15T05:40:11.422Z,10.38
2023-04-15T05:41:17.074Z,9.88
2023-04-15T05:42:20.316Z,8.70
2023-04-15T05:43:23.173Z,10.23
2023-04-15T05:44:24.964Z,9.52
2023-04-15T05:45:27.771Z,8.63
2023-04-15T05:46:29.716Z,7.68
2023-04-15T05:47:32.722Z,9.52
2023-04-15T05:48:34.556Z,9.95
2023-04-15T05:49:37.837Z,14.48
2023-04-15T05:50:41.148Z,15.30
2023-04-15T05:51:43.922Z,13.05
2023-04-15T05:52:47.198Z,9.90
2023-04-15T05:53:49.957Z,11.52
2023-04-15T05:54:51.817Z,15.02
2023-04-15T05:55:55.469Z,20.23
2023-04-15T05:56:57.688Z,22.92
2023-04-15T05:58:00.447Z,14.80
2023-04-15T05:59:02.411Z,9.25
2023-04-15T06:00:06.497Z,7.72
2023-04-15T06:01:14.236Z,7.85
2023-04-15T06:02:17.578Z,10.13
2023-04-15T06:03:19.678Z,6.75
2023-04-15T06:04:22.870Z,6.88
2023-04-15T06:05:25.869Z,7.63
2023-04-15T06:06:27.821Z,6.68
2023-04-15T06:07:30.609Z,6.20
2023-04-15T06:08:33.755Z,6.13
2023-04-15T06:09:36.549Z,5.88
2023-04-15T06:10:38.408Z,6.15
2023-04-15T06:11:42.046Z,6.10
2023-04-15T06:12:43.840Z,6.00
2023-04-15T06:13:46.574Z,5.30
2023-04-15T06:14:48.505Z,5.70
2023-04-15T06:15:51.284Z,5.80
2023-04-15T06:16:53.135Z,5.63
2023-04-15T06:17:56.710Z,5.20
2023-04-15T06:18:58.495Z,5.82
2023-04-15T06:20:01.389Z,6.20
2023-04-15T06:21:03.716Z,5.72
2023-04-15T06:22:07.268Z,6.25
2023-04-15T06:23:09.088Z,5.70
2023-04-15T06:24:13.335Z,5.55
2023-04-15T06:25:15.574Z,5.70
2023-04-15T06:26:18.320Z,5.55
2023-04-15T06:27:20.806Z,6.03
2023-04-15T06:28:23.607Z,5.05
2023-04-15T06:29:25.407Z,5.63
2023-04-15T06:30:28.583Z,5.10
2023-04-15T06:31:31.584Z,5.43
2023-04-15T06:32:34.693Z,4.97
2023-04-15T06:33:36.949Z,4.60
2023-04-15T06:34:39.711Z,4.93
2023-04-15T06:35:41.506Z,10.43
2023-04-15T06:36:44.351Z,7.53
2023-04-15T06:37:47.340Z,6.00
2023-04-15T06:38:49.133Z,6.32
2023-04-15T06:39:53.285Z,4.15
2023-04-15T06:40:55.092Z,3.58
2023-04-15T06:41:58.159Z,3.13
2023-04-15T06:43:01.044Z,3.75
2023-04-15T06:44:03.078Z,3.40
2023-04-15T06:45:06.912Z,4.10
2023-04-15T06:46:08.835Z,3.60
2023-04-15T06:47:13.047Z,4.13
2023-04-15T06:48:15.866Z,3.65
2023-04-15T06:49:17.843Z,3.60
2023-04-15T06:50:20.625Z,3.40
2023-04-15T06:51:25.591Z,3.85
2023-04-15T06:52:29.522Z,3.78
2023-04-15T06:53:31.681Z,3.67
2023-04-15T06:54:34.438Z,3.58
2023-04-15T06:55:37.625Z,3.40
2023-04-15T06:56:40.444Z,3.40
2023-04-15T06:57:42.259Z,3.47
2023-04-15T06:58:46.178Z,3.33
2023-04-15T06:59:47.994Z,3.22
2023-04-15T07:00:51.124Z,3.30
2023-04-15T07:01:53.120Z,3.33
2023-04-15T07:02:56.515Z,3.67
2023-04-15T07:03:58.405Z,3.60
2023-04-15T07:05:01.670Z,4.93
2023-04-15T07:06:06.444Z,5.53
2023-04-15T07:07:09.432Z,4.75
2023-04-15T07:08:12.223Z,3.72
2023-04-15T07:09:15.348Z,3.10
2023-04-15T07:10:17.279Z,3.00
2023-04-15T07:11:22.132Z,3.20
2023-04-15T07:12:24.229Z,3.65
2023-04-15T07:13:27.040Z,3.92
2023-04-15T07:14:29.539Z,4.00
2023-04-15T07:15:32.354Z,3.72
2023-04-15T07:16:34.198Z,3.75
2023-04-15T07:17:37.334Z,3.30
2023-04-15T07:18:39.287Z,3.03
2023-04-15T07:19:42.130Z,3.10
2023-04-15T07:20:44.914Z,6.53
2023-04-15T07:21:47.161Z,5.78
2023-04-15T07:22:49.922Z,4.85
2023-04-15T07:23:52.946Z,3.60
2023-04-15T07:24:55.773Z,2.83
2023-04-15T07:25:57.611Z,3.10
2023-04-15T07:27:02.145Z,3.35
2023-04-15T07:28:04.236Z,2.60
2023-04-15T07:29:07.166Z,3.10
2023-04-15T07:30:10.653Z,3.35
2023-04-15T07:31:13.706Z,3.22
2023-04-15T07:32:15.600Z,2.95
2023-04-15T07:33:18.608Z,2.67
2023-04-15T07:34:20.812Z,4.68
2023-04-15T07:35:23.643Z,3.20
2023-04-15T07:36:25.501Z,2.75
2023-04-15T07:37:28.366Z,2.30
2023-04-15T07:38:30.169Z,2.40
2023-04-15T07:39:32.991Z,2.63
2023-04-15T07:40:34.875Z,4.38
2023-04-15T07:41:38.098Z,3.60
2023-04-15T07:42:42.297Z,3.72
2023-04-15T07:43:44.800Z,2.92
2023-04-15T07:44:47.552Z,3.40
2023-04-15T07:45:49.513Z,3.30
2023-04-15T07:46:52.467Z,5.18
2023-04-15T07:47:56.084Z,5.65
2023-04-15T07:48:57.986Z,3.70
2023-04-15T07:50:00.803Z,3.45
2023-04-15T07:51:03.534Z,2.88
2023-04-15T07:52:06.593Z,2.92
2023-04-15T07:53:09.447Z,2.60
2023-04-15T07:54:11.227Z,2.10
2023-04-15T07:55:14.029Z,2.22
2023-04-15T07:56:16.252Z,2.42
2023-04-15T07:57:19.132Z,2.30
2023-04-15T07:58:23.009Z,2.85
2023-04-15T07:59:27.599Z,2.30
2023-04-15T08:00:29.431Z,2.58
2023-04-15T08:01:33.236Z,2.60
2023-04-15T08:02:36.408Z,2.38
2023-04-15T08:03:41.253Z,2.38
2023-04-15T08:04:43.393Z,2.88
2023-04-15T08:05:47.326Z,2.95
2023-04-15T08:06:50.519Z,3.20
2023-04-15T08:07:53.317Z,3.17
2023-04-15T08:08:55.520Z,2.97
2023-04-15T08:09:58.285Z,3.13
2023-04-15T08:11:00.180Z,2.90
2023-04-15T08:12:03.364Z,2.80
2023-04-15T08:13:06.655Z,3.00
2023-04-15T08:14:09.844Z,2.87
2023-04-15T08:15:13.105Z,3.53
2023-04-15T08:16:18.947Z,4.93
2023-04-15T08:17:22.062Z,3.50
2023-04-15T08:18:23.952Z,3.30
2023-04-15T08:19:26.699Z,4.37
2023-04-15T08:20:28.642Z,3.43
2023-04-15T08:21:31.766Z,2.90
2023-04-15T08:22:33.648Z,3.17
2023-04-15T08:23:36.513Z,3.20
2023-04-15T08:24:39.160Z,2.30
2023-04-15T08:25:42.113Z,2.10
2023-04-15T08:26:44.365Z,2.70
2023-04-15T08:27:47.239Z,2.77
2023-04-15T08:28:49.543Z,2.63
2023-04-15T08:29:53.897Z,2.80
2023-04-15T08:30:56.030Z,2.78
2023-04-15T08:31:58.844Z,2.60
2023-04-15T08:33:01.172Z,2.60
2023-04-15T08:34:03.980Z,2.03
2023-04-15T08:35:06.367Z,2.03
2023-04-15T08:36:09.620Z,2.03
2023-04-15T08:37:12.687Z,1.97
2023-04-15T08:38:15.677Z,2.25
2023-04-15T08:39:17.928Z,2.00
2023-04-15T08:40:21.060Z,2.00
2023-04-15T08:41:23.784Z,2.00
2023-04-15T08:42:32.401Z,2.00
2023-04-15T08:43:35.544Z,1.90
2023-04-15T08:44:38.369Z,1.90
2023-04-15T08:45:42.614Z,1.90
2023-04-15T08:46:45.479Z,2.10
2023-04-15T08:47:48.938Z,2.20
2023-04-15T08:48:52.519Z,2.25
2023-04-15T08:49:55.594Z,2.30
2023-04-15T08:50:59.047Z,1.85
2023-04-15T08:52:01.480Z,1.77
2023-04-15T08:53:04.721Z,2.35
2023-04-15T08:54:08.778Z,1.88
2023-04-15T08:55:12.340Z,2.00
2023-04-15T08:56:16.464Z,2.00
2023-04-15T08:57:18.713Z,2.72
2023-04-15T08:58:21.816Z,3.03
2023-04-15T08:59:24.158Z,3.78
2023-04-15T09:00:27.599Z,3.50
2023-04-15T09:01:32.198Z,3.90
2023-04-15T09:02:35.088Z,3.80
2023-04-15T09:03:37.162Z,3.63
2023-04-15T09:04:40.603Z,3.42
2023-04-15T09:05:42.475Z,3.78
2023-04-15T09:06:45.341Z,3.63
2023-04-15T09:07:47.412Z,3.90
2023-04-15T09:08:50.388Z,3.80
2023-04-15T09:09:52.364Z,3.60
2023-04-15T09:10:55.319Z,3.72
2023-04-15T09:11:57.118Z,4.25
2023-04-15T09:12:59.927Z,3.83
2023-04-15T09:14:01.833Z,3.67
2023-04-15T09:15:05.213Z,3.45
2023-04-15T09:16:08.450Z,3.65
2023-04-15T09:17:11.809Z,3.75
2023-04-15T09:18:14.649Z,3.40
2023-04-15T09:19:22.034Z,3.92
2023-04-15T09:20:24.964Z,3.67
2023-04-15T09:21:27.698Z,3.92
2023-04-15T09:22:33.490Z,3.67
2023-04-15T09:23:35.693Z,3.58
2023-04-15T09:24:39.717Z,3.97
2023-04-15T09:25:42.548Z,3.72
2023-04-15T09:26:45.649Z,3.97
2023-04-15T09:27:48.579Z,4.32
2023-04-15T09:28:51.319Z,3.97
2023-04-15T09:29:54.124Z,4.13
2023-04-15T09:30:57.888Z,3.80
2023-04-15T09:32:11.678Z,3.75
2023-04-15T09:33:15.867Z,3.78
2023-04-15T09:34:18.779Z,4.00
2023-04-15T09:35:21.506Z,3.53
2023-04-15T09:36:25.150Z,4.10
2023-04-15T09:37:35.631Z,4.18
2023-04-15T09:38:56.024Z,3.42
2023-04-15T09:39:57.839Z,3.78
2023-04-15T09:41:00.989Z,3.45
2023-04-15T09:42:07.198Z,2.95
2023-04-15T09:43:12.837Z,3.90
2023-04-15T09:44:24.282Z,3.60
2023-04-15T09:45:29.572Z,3.45
2023-04-15T09:46:50.700Z,3.90
2023-04-15T09:47:54.114Z,3.37
2023-04-15T09:49:08.762Z,3.50
2023-04-15T09:50:11.580Z,3.00
2023-04-15T09:51:13.365Z,3.50
2023-04-15T09:52:16.125Z,3.63
2023-04-15T09:53:19.544Z,3.07
2023-04-15T09:54:22.952Z,3.37
2023-04-15T09:55:24.933Z,3.47
2023-04-15T09:56:33.606Z,2.83
2023-04-15T09:57:36.338Z,2.97
2023-04-15T09:58:39.365Z,2.87
2023-04-15T09:59:41.385Z,2.90
2023-04-15T10:00:44.629Z,3.00
2023-04-15T10:01:47.082Z,2.40
2023-04-15T10:02:50.481Z,2.80
2023-04-15T10:03:55.909Z,2.77
2023-04-15T10:04:59.042Z,2.80
2023-04-15T10:06:02.088Z,2.43
2023-04-15T10:07:05.524Z,2.63
2023-04-15T10:08:08.758Z,2.40
2023-04-15T10:09:10.843Z,3.57
2023-04-15T10:10:14.059Z,2.83
2023-04-15T10:11:17.516Z,2.43
2023-04-15T10:12:20.765Z,3.10
2023-04-15T10:13:26.098Z,2.73
2023-04-15T10:14:31.569Z,2.90
2023-04-15T10:15:35.298Z,3.13
2023-04-15T10:16:39.644Z,3.37
2023-04-15T10:17:44.879Z,2.87
2023-04-15T10:18:49.261Z,2.90
2023-04-15T10:19:55.061Z,2.63
2023-04-15T10:20:58.233Z,2.70
2023-04-15T10:22:00.481Z,2.10
2023-04-15T10:23:03.503Z,2.37
2023-04-15T10:24:06.214Z,2.33
2023-04-15T10:25:10.503Z,2.30
2023-04-15T10:26:14.727Z,2.00
2023-04-15T10:27:18.828Z,2.20
2023-04-15T10:28:22.725Z,2.60
2023-04-15T10:29:25.918Z,2.27
2023-04-15T10:30:29.058Z,2.53
2023-04-15T10:31:31.245Z,3.47
2023-04-15T10:32:34.242Z,3.70
2023-04-15T10:33:36.625Z,2.50
2023-04-15T10:34:39.658Z,2.70
2023-04-15T10:35:44.005Z,2.73
2023-04-15T10:36:47.058Z,3.27
2023-04-15T10:37:49.891Z,2.70
2023-04-15T10:38:51.672Z,2.07
2023-04-15T10:39:54.514Z,2.47
2023-04-15T10:41:13.161Z,2.40
2023-04-15T10:42:17.376Z,2.60
2023-04-15T10:43:26.380Z,2.63
2023-04-15T10:44:29.175Z,2.60
2023-04-15T10:45:33.443Z,2.43
2023-04-15T10:46:38.211Z,2.13
2023-04-15T10:47:40.124Z,2.60
2023-04-15T10:48:48.809Z,2.50
2023-04-15T10:49:53.594Z,2.60
2023-04-15T10:51:00.961Z,2.67
2023-04-15T10:52:04.243Z,2.50
2023-04-15T10:53:07.044Z,2.40
2023-04-15T10:54:10.464Z,2.23
2023-04-15T10:55:15.679Z,2.47
2023-04-15T10:56:17.494Z,2.57
2023-04-15T10:57:24.207Z,2.43
2023-04-15T10:58:27.313Z,2.35
2023-04-15T10:59:29.448Z,2.07
2023-04-15T11:00:35.225Z,2.72
2023-04-15T11:01:53.132Z,2.83
2023-04-15T11:02:57.869Z,2.10
2023-04-15T11:04:00.175Z,2.42
2023-04-15T11:05:03.816Z,2.30
2023-04-15T11:06:08.469Z,2.63
2023-04-15T11:07:10.970Z,2.22
2023-04-15T11:08:15.199Z,2.20
2023-04-15T11:09:32.969Z,2.35
2023-04-15T11:10:54.826Z,2.63
2023-04-15T11:12:08.392Z,2.70
2023-04-15T11:13:16.732Z,2.28
2023-04-15T11:14:19.521Z,1.95
2023-04-15T11:15:29.751Z,2.10
2023-04-15T11:16:32.669Z,1.92
2023-04-15T11:17:34.516Z,2.10
2023-04-15T11:18:38.003Z,1.98
2023-04-15T11:19:40.869Z,1.50
2023-04-15T11:20:45.732Z,1.90
2023-04-15T11:21:49.913Z,1.80
2023-04-15T11:23:08.030Z,1.80
2023-04-15T11:24:27.089Z,1.80
2023-04-15T11:25:31.051Z,1.77
2023-04-15T11:26:34.025Z,1.80
2023-04-15T11:27:35.801Z,1.63
2023-04-15T11:28:40.074Z,2.50
2023-04-15T11:29:41.974Z,1.77
2023-04-15T11:30:45.203Z,1.77
2023-04-15T11:31:49.582Z,2.33
2023-04-15T11:32:55.490Z,3.17
2023-04-15T11:34:00.343Z,2.80
2023-04-15T11:35:02.548Z,2.20
2023-04-15T11:36:05.712Z,2.47
2023-04-15T11:37:09.116Z,2.03
2023-04-15T11:38:13.631Z,2.13
2023-04-15T11:39:16.726Z,2.03
2023-04-15T11:40:23.853Z,1.93
2023-04-15T11:41:27.307Z,1.90
2023-04-15T11:42:39.341Z,2.00
2023-04-15T11:43:49.470Z,2.10
2023-04-15T11:45:07.416Z,1.90
2023-04-15T11:46:10.291Z,1.80
2023-04-15T11:47:23.098Z,1.90
2023-04-15T11:48:27.359Z,1.97
2023-04-15T11:49:30.652Z,1.95
2023-04-15T11:50:33.517Z,1.70
2023-04-15T11:51:37.180Z,2.13
2023-04-15T11:52:40.788Z,1.70
2023-04-15T11:53:45.850Z,1.80
2023-04-15T11:54:47.980Z,1.80
2023-04-15T11:55:53.152Z,1.80
2023-04-15T11:56:56.622Z,1.90
2023-04-15T11:58:14.477Z,1.80
2023-04-15T11:59:18.403Z,1.67
2023-04-15T12:00:20.416Z,1.50
2023-04-15T12:01:32.261Z,2.13
2023-04-15T12:02:37.136Z,1.83
2023-04-15T12:03:41.243Z,1.83
2023-04-15T12:04:43.641Z,1.90
2023-04-15T12:06:20.046Z,1.80
2023-04-15T12:07:21.870Z,1.87
2023-04-15T12:08:26.202Z,1.90
2023-04-15T12:09:29.939Z,1.90
2023-04-15T12:10:32.724Z,1.90
2023-04-15T12:11:40.917Z,2.10
2023-04-15T12:12:42.764Z,1.93
2023-04-15T12:13:46.080Z,1.80
2023-04-15T12:14:48.868Z,2.00
2023-04-15T12:15:50.744Z,1.90
2023-04-15T12:16:54.949Z,1.77
2023-04-15T12:17:59.899Z,2.07
2023-04-15T12:19:08.468Z,1.90
2023-04-15T12:20:11.970Z,1.70
2023-04-15T12:21:14.088Z,2.00
2023-04-15T12:22:17.934Z,1.60
2023-04-15T12:23:20.220Z,1.97
2023-04-15T12:24:24.378Z,2.20
2023-04-15T12:25:35.615Z,2.20
2023-04-15T12:26:38.991Z,2.20
2023-04-15T12:27:42.464Z,1.60
2023-04-15T12:28:44.276Z,1.90
2023-04-15T12:29:47.214Z,1.70
2023-04-15T12:30:50.017Z,1.97
2023-04-15T12:31:55.204Z,1.70
2023-04-15T12:32:57.871Z,1.80
2023-04-15T12:34:01.722Z,2.10
2023-04-15T12:35:05.308Z,2.00
2023-04-15T12:36:08.270Z,1.83
2023-04-15T12:37:13.729Z,2.13
2023-04-15T12:38:15.753Z,1.85
2023-04-15T12:39:18.571Z,2.08
2023-04-15T12:40:22.044Z,1.90
2023-04-15T12:41:25.397Z,1.90
2023-04-15T12:42:28.369Z,2.10
2023-04-15T12:43:30.204Z,1.90
2023-04-15T12:44:33.800Z,2.00
2023-04-15T12:45:35.852Z,1.88
2023-04-15T12:46:38.948Z,2.20
2023-04-15T12:47:41.772Z,1.83
2023-04-15T12:48:43.691Z,2.00
2023-04-15T12:49:46.922Z,1.80
2023-04-15T12:50:48.752Z,1.90
2023-04-15T12:51:53.022Z,2.10
2023-04-15T12:52:54.903Z,1.75
2023-04-15T12:53:57.977Z,2.08
2023-04-15T12:55:01.764Z,1.83
2023-04-15T12:56:05.421Z,2.30
2023-04-15T12:57:08.207Z,2.03
2023-04-15T12:58:11.763Z,1.80
2023-04-15T12:59:14.559Z,1.80
2023-04-15T13:00:16.793Z,2.13
2023-04-15T13:01:20.069Z,1.97
2023-04-15T13:02:25.552Z,2.07
2023-04-15T13:03:28.662Z,2.10
2023-04-15T13:04:31.321Z,2.03
2023-04-15T13:05:34.333Z,2.13
2023-04-15T13:06:36.340Z,1.97
2023-04-15T13:07:39.439Z,1.63
2023-04-15T13:08:47.997Z,1.73
2023-04-15T13:09:57.102Z,1.90
2023-04-15T13:11:00.138Z,1.93
2023-04-15T13:12:05.664Z,1.97
2023-04-15T13:13:07.935Z,1.90
2023-04-15T13:14:12.993Z,1.77
2023-04-15T13:15:15.031Z,1.90
2023-04-15T13:16:17.962Z,1.73
2023-04-15T13:17:22.240Z,1.60
2023-04-15T13:18:25.337Z,1.57
2023-04-15T13:19:27.168Z,2.00
2023-04-15T13:20:30.013Z,1.90
2023-04-15T13:21:35.053Z,1.57
2023-04-15T13:22:38.231Z,1.87
2023-04-15T13:23:41.674Z,1.60
2023-04-15T13:24:44.455Z,2.10
2023-04-15T13:25:46.437Z,1.87
2023-04-15T13:26:50.520Z,1.90
2023-04-15T13:27:53.771Z,1.83
2023-04-15T13:28:56.689Z,1.97
2023-04-15T13:29:58.570Z,1.97
2023-04-15T13:31:01.499Z,1.80
2023-04-15T13:32:03.389Z,1.77
2023-04-15T13:33:06.730Z,1.83
2023-04-15T13:34:08.539Z,1.70
2023-04-15T13:35:11.326Z,1.70
2023-04-15T13:36:14.210Z,1.73
2023-04-15T13:37:16.289Z,1.93
2023-04-15T13:38:19.247Z,1.80
2023-04-15T13:39:21.170Z,1.87
2023-04-15T13:40:24.115Z,1.77
2023-04-15T13:41:26.214Z,1.90
2023-04-15T13:42:29.058Z,2.00
2023-04-15T13:43:34.274Z,1.77
2023-04-15T13:44:37.068Z,1.53
2023-04-15T13:45:40.185Z,1.90
2023-04-15T13:46:42.603Z,2.10
2023-04-15T13:47:45.470Z,2.00
2023-04-15T13:48:47.755Z,1.70
2023-04-15T13:49:50.624Z,1.57
2023-04-15T13:50:53.380Z,1.73
2023-04-15T13:51:55.273Z,2.40
2023-04-15T13:52:58.208Z,1.93
2023-04-15T13:54:00.354Z,2.10
2023-04-15T13:55:07.281Z,1.83
2023-04-15T13:56:22.570Z,1.73
2023-04-15T13:57:24.445Z,1.63
2023-04-15T13:58:27.265Z,1.70
2023-04-15T13:59:30.501Z,1.83
2023-04-15T14:00:33.320Z,1.83
2023-04-15T14:01:35.613Z,1.50
2023-04-15T14:02:38.609Z,1.40